Time;durP1;ratioP1;P1;durP2;ratioP2;P2;SDS_P1;SDS_P2;PMS_P1;PMS_P2;Temp;Humidity;BMP_temperature;BMP_pressure;BME280_temperature;BME280_humidity;BME280_pressure;Samples;Min_cycle;Max_cycle;Signal;HPM_P1;HPM_P2
2023/04/29 00:00:07;;;;;;;11.05;7.82;;;;;;;11.47;100.00;100768.41;7789439;18;20248;-73
2023/04/29 00:02:34;;;;;;;6.82;6.32;;;;;;;11.22;100.00;100736.50;7789835;18;20002;-71
2023/04/29 00:05:03;;;;;;;8.00;7.25;;;;;;;11.66;100.00;100807.66;7790162;18;20006;-72
2023/04/29 00:07:35;;;;;;;6.93;6.30;;;;;;;11.60;100.00;100810.63;7789712;18;19994;-71
2023/04/29 00:10:02;;;;;;;8.23;7.43;;;;;;;11.53;100.00;100806.66;7749819;18;20064;-72
2023/04/29 00:12:30;;;;;;;7.03;6.43;;;;;;;11.42;100.00;100780.94;7789873;18;19998;-72
2023/04/29 00:15:01;;;;;;;7.43;6.72;;;;;;;10.89;100.00;100693.59;7789424;18;20072;-72
2023/04/29 00:17:28;;;;;;;7.97;7.18;;;;;;;11.66;100.00;100812.06;7791488;18;20081;-72
2023/04/29 00:19:54;;;;;;;8.13;7.13;;;;;;;9.82;100.00;100529.53;7789628;18;20056;-71
2023/04/29 00:22:21;;;;;;;11.20;8.27;;;;;;;10.99;100.00;100743.84;7791058;18;20014;-72
2023/04/29 00:24:48;;;;;;;10.02;7.50;;;;;;;11.38;100.00;100831.94;7789115;18;20070;-72
2023/04/29 00:27:15;;;;;;;10.85;8.43;;;;;;;11.35;100.00;100830.34;7791848;18;20002;-72
2023/04/29 00:29:42;;;;;;;11.55;8.55;;;;;;;10.78;100.00;100744.06;7788089;18;20002;-72
2023/04/29 00:32:09;;;;;;;8.60;7.85;;;;;;;11.35;100.00;100842.66;7787915;18;20636;-73
2023/04/29 00:34:35;;;;;;;11.70;9.55;;;;;;;11.12;100.00;100826.28;7787894;18;20005;-71
2023/04/29 00:37:02;;;;;;;11.57;9.73;;;;;;;10.13;100.00;100652.03;7789124;18;20057;-71
2023/04/29 00:39:28;;;;;;;13.75;8.85;;;;;;;10.48;100.00;100716.75;7788303;18;20549;-72
2023/04/29 00:41:55;;;;;;;13.15;8.75;;;;;;;11.09;100.00;100841.38;7788684;18;20008;-71
2023/04/29 00:44:21;;;;;;;14.02;9.52;;;;;;;11.13;100.00;100848.19;7786366;18;20010;-71
2023/04/29 00:46:47;;;;;;;17.85;9.50;;;;;;;11.20;100.00;100862.66;7788723;18;20230;-72
2023/04/29 00:49:14;;;;;;;18.08;9.88;;;;;;;11.13;100.00;100861.31;7787695;18;20018;-72
2023/04/29 00:51:43;;;;;;;20.95;11.15;;;;;;;10.30;100.00;100722.03;7789051;18;19994;-72
2023/04/29 00:54:10;;;;;;;18.23;12.38;;;;;;;10.74;100.00;100823.03;7788403;18;20014;-73
2023/04/29 00:56:40;;;;;;;22.33;11.43;;;;;;;11.03;100.00;100862.72;7789120;18;20006;-71
2023/04/29 00:59:09;;;;;;;14.45;11.20;;;;;;;10.85;100.00;100860.09;7788417;18;20001;-71
2023/04/29 01:01:35;;;;;;;19.55;11.63;;;;;;;10.65;100.00;100847.97;7787883;18;20008;-71
2023/04/29 01:04:04;;;;;;;18.48;11.73;;;;;;;10.85;100.00;100873.22;7789189;18;20017;-71
2023/04/29 01:06:43;;;;;;;19.65;12.82;;;;;;;10.88;100.00;100873.06;7788280;18;20028;-71
2023/04/29 01:09:20;;;;;;;20.85;12.23;;;;;;;10.69;100.00;100862.63;7788456;18;20012;-71
2023/04/29 01:12:10;;;;;;;22.23;12.48;;;;;;;10.88;100.00;100880.94;7787382;18;20020;-71
2023/04/29 01:14:38;;;;;;;22.67;12.45;;;;;;;10.81;100.00;100887.44;7787264;18;20392;-72
2023/04/29 01:17:17;;;;;;;19.02;12.40;;;;;;;10.61;100.00;100870.06;7790030;18;20650;-71
2023/04/29 01:19:47;;;;;;;20.33;12.50;;;;;;;10.23;100.00;100809.78;7787992;18;20591;-71
2023/04/29 01:22:14;;;;;;;23.45;12.68;;;;;;;10.68;100.00;100892.44;7746603;18;20002;-72
2023/04/29 01:24:40;;;;;;;22.83;13.68;;;;;;;10.48;100.00;100850.56;7747525;18;20017;-71
2023/04/29 01:27:27;;;;;;;21.50;10.40;;;;;;;10.65;100.00;100905.72;7791103;18;20056;-72
2023/04/29 01:30:25;;;;;;;25.13;13.57;;;;;;;10.45;100.00;100887.47;7787999;18;20057;-72
2023/04/29 01:33:33;;;;;;;23.42;12.50;;;;;;;10.59;100.00;100906.03;7723408;18;19998;-72
2023/04/29 01:36:15;;;;;;;27.38;14.55;;;;;;;10.54;100.00;100913.25;7791739;18;20058;-72
2023/04/29 01:39:03;;;;;;;33.72;14.50;;;;;;;10.57;100.00;100916.59;7788988;18;20018;-71
2023/04/29 01:41:43;;;;;;;24.33;12.00;;;;;;;10.57;100.00;100913.97;7790864;18;20006;-72
2023/04/29 01:44:17;;;;;;;29.63;15.45;;;;;;;9.75;100.00;100791.09;7790530;18;20572;-71
2023/04/29 01:46:49;;;;;;;19.08;12.70;;;;;;;10.51;100.00;100914.25;7791290;18;19998;-71
2023/04/29 01:49:20;;;;;;;29.83;15.10;;;;;;;10.43;100.00;100910.31;7789752;18;20085;-71
2023/04/29 01:51:46;;;;;;;24.35;13.48;;;;;;;9.68;100.00;100796.69;7790116;18;20018;-71
2023/04/29 01:54:12;;;;;;;27.08;13.65;;;;;;;9.78;100.00;100835.50;7790226;18;20006;-71
2023/04/29 01:56:39;;;;;;;23.58;14.05;;;;;;;10.38;100.00;100924.50;7790853;18;19994;-72
2023/04/29 01:59:06;;;;;;;36.90;16.02;;;;;;;9.97;100.00;100895.78;7790449;18;20008;-71
2023/04/29 02:01:33;;;;;;;19.85;13.15;;;;;;;9.83;100.00;100869.38;7790393;18;20014;-71
2023/04/29 02:03:59;;;;;;;30.52;13.48;;;;;;;8.92;100.00;100718.09;7748963;18;20558;-72
2023/04/29 02:06:26;;;;;;;34.28;14.98;;;;;;;10.12;100.00;100936.19;7790876;18;19998;-71
2023/04/29 02:08:53;;;;;;;28.88;13.85;;;;;;;10.04;100.00;100943.53;7790825;18;20402;-71
2023/04/29 02:11:20;;;;;;;34.88;15.48;;;;;;;9.57;100.00;100860.91;7791730;18;20117;-71
2023/04/29 02:13:46;;;;;;;27.17;16.40;;;;;;;10.09;100.00;100938.94;7789321;18;20008;-72
2023/04/29 02:16:16;;;;;;;37.20;15.98;;;;;;;9.78;100.00;100914.16;7791355;18;20005;-71
2023/04/29 02:18:42;;;;;;;29.48;15.02;;;;;;;9.67;100.00;100871.84;7789302;18;20006;-71
2023/04/29 02:21:09;;;;;;;33.83;13.98;;;;;;;9.93;100.00;100909.13;7789138;18;20466;-71
2023/04/29 02:23:35;;;;;;;26.90;13.88;;;;;;;10.11;100.00;100946.75;7789623;18;20006;-72
2023/04/29 02:26:05;;;;;;;38.80;13.35;;;;;;;9.84;100.00;100902.50;7749292;18;20002;-70
2023/04/29 02:28:33;;;;;;;32.28;14.25;;;;;;;9.98;100.00;100930.72;7789779;18;19993;-71
2023/04/29 02:31:00;;;;;;;31.20;16.08;;;;;;;10.12;100.00;100975.53;7789319;18;20010;-71
2023/04/29 02:33:26;;;;;;;28.10;13.95;;;;;;;9.39;100.00;100836.41;7787501;18;19994;-71
2023/04/29 02:35:53;;;;;;;27.08;14.48;;;;;;;10.12;100.00;100953.69;7790243;18;20028;-72
2023/04/29 02:38:19;;;;;;;36.15;14.93;;;;;;;9.61;100.00;100892.25;7790540;18;19989;-71
2023/04/29 02:40:46;;;;;;;36.30;14.82;;;;;;;9.69;100.00;100905.84;7790627;18;20029;-72
2023/04/29 02:43:12;;;;;;;35.83;16.20;;;;;;;10.02;100.00;100965.50;7789439;18;20021;-72
2023/04/29 02:45:39;;;;;;;42.22;15.45;;;;;;;9.90;100.00;100978.28;7790181;18;20014;-71
2023/04/29 02:48:05;;;;;;;32.30;15.43;;;;;;;9.45;100.00;100907.78;7789564;18;19994;-72
2023/04/29 02:50:32;;;;;;;27.92;13.70;;;;;;;9.82;100.00;100982.13;7789823;18;20021;-71
2023/04/29 02:52:58;;;;;;;29.90;15.63;;;;;;;9.78;100.00;100994.53;7789348;18;20065;-71
2023/04/29 02:55:25;;;;;;;28.05;15.50;;;;;;;9.37;100.00;100910.75;7789609;18;20001;-71
2023/04/29 02:57:52;;;;;;;38.72;16.38;;;;;;;8.37;100.00;100777.09;7790246;18;20372;-72
2023/04/29 03:00:22;;;;;;;32.03;15.20;;;;;;;9.62;100.00;100986.47;7790243;18;20419;-71
2023/04/29 03:02:48;;;;;;;25.45;14.45;;;;;;;9.55;100.00;100991.16;7838066;18;20009;-72
2023/04/29 03:05:15;;;;;;;30.35;14.75;;;;;;;9.63;100.00;100993.44;7789926;18;20006;-71
2023/04/29 03:07:43;;;;;;;29.35;14.68;;;;;;;9.60;100.00;100998.78;7789438;18;20002;-72
2023/04/29 03:10:10;;;;;;;26.98;14.05;;;;;;;9.25;100.00;100951.41;7788834;18;20002;-72
2023/04/29 03:12:38;;;;;;;33.72;14.50;;;;;;;9.49;100.00;100999.28;7790005;18;20073;-71
2023/04/29 03:15:09;;;;;;;35.33;12.95;;;;;;;9.35;100.00;100980.69;7789139;18;19994;-71
2023/04/29 03:17:36;;;;;;;24.88;12.45;;;;;;;9.41;100.00;100993.50;7750342;18;20073;-71
2023/04/29 03:20:03;;;;;;;27.17;13.18;;;;;;;8.87;100.00;100921.59;7788326;18;20014;-71
2023/04/29 03:22:29;;;;;;;26.30;13.30;;;;;;;9.31;100.00;100993.03;7790880;18;20008;-72
2023/04/29 03:24:56;;;;;;;21.33;11.57;;;;;;;9.36;100.00;101008.56;7789432;18;19997;-71
2023/04/29 03:27:22;;;;;;;16.98;11.10;;;;;;;8.83;100.00;100935.72;7790713;18;20018;-70
2023/04/29 03:29:49;;;;;;;24.02;14.63;;;;;;;9.04;100.00;100968.00;7787541;18;20013;-73
2023/04/29 03:32:16;;;;;;;24.83;12.57;;;;;;;9.22;100.00;100984.72;7789099;18;20002;-73
2023/04/29 03:34:42;;;;;;;19.98;12.52;;;;;;;9.34;100.00;101013.88;7786818;18;20009;-71
2023/04/29 03:37:09;;;;;;;18.25;11.00;;;;;;;9.34;100.00;101011.25;7789853;18;20427;-70
2023/04/29 03:39:35;;;;;;;26.27;12.93;;;;;;;9.14;100.00;101016.44;7788780;18;20083;-70
2023/04/29 03:42:03;;;;;;;26.00;13.20;;;;;;;8.77;100.00;100945.53;7790038;18;20004;-73
2023/04/29 03:44:29;;;;;;;18.58;11.05;;;;;;;9.15;100.00;101013.78;7789055;18;20010;-73
2023/04/29 03:46:56;;;;;;;18.98;11.80;;;;;;;8.55;100.00;100922.00;7789631;18;20079;-72
2023/04/29 03:49:22;;;;;;;24.95;13.15;;;;;;;9.00;100.00;101003.97;7789128;18;20006;-72
2023/04/29 03:51:49;;;;;;;20.10;12.32;;;;;;;8.25;100.00;100897.88;7789532;18;20606;-71
2023/04/29 03:54:16;;;;;;;20.25;12.68;;;;;;;9.06;100.00;101029.88;7789426;18;20501;-73
2023/04/29 03:56:42;;;;;;;21.27;11.95;;;;;;;9.02;100.00;101036.16;7790270;18;20084;-73
2023/04/29 03:59:09;;;;;;;14.85;9.90;;;;;;;8.96;100.00;101034.63;7789006;18;20018;-73
2023/04/29 04:01:35;;;;;;;16.75;11.30;;;;;;;8.90;100.00;101032.25;7789326;18;19994;-71
2023/04/29 04:04:04;;;;;;;17.75;11.13;;;;;;;8.90;100.00;101034.00;7791163;18;20094;-71
2023/04/29 04:06:30;;;;;;;21.05;12.10;;;;;;;8.38;100.00;100963.66;7792779;18;19998;-73
2023/04/29 04:08:57;;;;;;;35.00;14.00;;;;;;;8.46;100.00;100972.06;7791676;18;20017;-70
2023/04/29 04:11:23;;;;;;;20.77;11.32;;;;;;;7.56;100.00;100824.78;7789310;18;20106;-71
2023/04/29 04:13:50;;;;;;;21.10;11.65;;;;;;;8.90;100.00;101049.72;7788888;18;20012;-71
2023/04/29 04:16:17;;;;;;;33.35;13.98;;;;;;;8.91;100.00;101051.44;7748613;18;20068;-70
2023/04/29 04:18:43;;;;;;;25.13;11.48;;;;;;;8.85;100.00;101043.81;7788717;18;20347;-72
2023/04/29 04:21:11;;;;;;;24.98;11.35;;;;;;;8.89;100.00;101058.50;7789004;18;19995;-71
2023/04/29 04:23:41;;;;;;;18.08;11.65;;;;;;;8.84;100.00;101050.84;7789626;18;20006;-73
2023/04/29 04:26:07;;;;;;;17.48;13.48;;;;;;;8.48;100.00;100999.03;7789675;18;20001;-72
2023/04/29 04:28:34;;;;;;;25.65;12.05;;;;;;;8.77;100.00;101051.97;7788553;18;20021;-72
2023/04/29 04:31:01;;;;;;;28.65;11.65;;;;;;;8.77;100.00;101047.56;7789610;18;20073;-72
2023/04/29 04:33:27;;;;;;;20.15;11.73;;;;;;;8.81;100.00;101061.41;7789617;18;20006;-72
2023/04/29 04:35:54;;;;;;;19.50;10.88;;;;;;;8.70;100.00;101048.75;7787096;18;20060;-72
2023/04/29 04:38:24;;;;;;;22.63;12.15;;;;;;;8.33;100.00;101012.63;7787480;18;20004;-72
2023/04/29 04:40:50;;;;;;;28.27;13.88;;;;;;;7.84;100.00;100936.91;7790302;18;19994;-72
2023/04/29 04:43:16;;;;;;;28.88;12.50;;;;;;;8.72;100.00;101078.31;7789161;18;20422;-72
2023/04/29 04:45:43;;;;;;;23.08;10.50;;;;;;;8.73;100.00;101071.31;7790467;18;20013;-72
2023/04/29 04:48:09;;;;;;;15.27;9.55;;;;;;;8.40;100.00;101029.81;7619654;18;19998;-72
2023/04/29 04:50:36;;;;;;;18.30;10.40;;;;;;;8.68;100.00;101058.41;7790221;18;20065;-71
2023/04/29 04:53:02;;;;;;;20.42;10.68;;;;;;;8.76;100.00;101087.75;7789753;18;20010;-72
2023/04/29 04:55:30;;;;;;;21.35;10.20;;;;;;;8.33;100.00;101023.94;7792412;18;20057;-72
2023/04/29 04:57:57;;;;;;;20.38;10.02;;;;;;;8.69;100.00;101086.28;7790587;18;20009;-73
2023/04/29 05:00:23;;;;;;;17.25;9.02;;;;;;;8.82;100.00;101099.75;7790613;18;20000;-72
2023/04/29 05:02:50;;;;;;;13.15;9.75;;;;;;;7.49;100.00;100894.63;7791610;18;20057;-72
2023/04/29 05:05:17;;;;;;;13.77;9.38;;;;;;;8.33;100.00;101008.25;7838652;18;20525;-71
2023/04/29 05:07:44;;;;;;;17.95;10.63;;;;;;;8.53;100.00;101049.38;7839021;18;20462;-74
2023/04/29 05:10:10;;;;;;;19.15;10.30;;;;;;;8.70;100.00;101080.16;7792364;18;20001;-72
2023/04/29 05:12:37;;;;;;;15.90;10.63;;;;;;;8.84;100.00;101118.88;7790645;18;19998;-70
2023/04/29 05:15:03;;;;;;;17.33;9.95;;;;;;;8.83;100.00;101119.78;7790304;18;20009;-73
2023/04/29 05:17:30;;;;;;;17.30;8.95;;;;;;;8.85;100.00;101131.03;7790305;18;20150;-71
2023/04/29 05:19:56;;;;;;;13.77;10.95;;;;;;;8.27;100.00;101039.88;7789268;18;20007;-72
2023/04/29 05:22:23;;;;;;;13.35;11.48;;;;;;;8.91;100.00;101135.19;7790474;18;20017;-73
2023/04/29 05:24:50;;;;;;;18.65;9.05;;;;;;;8.94;100.00;101135.06;7789529;18;19998;-71
2023/04/29 05:27:16;;;;;;;9.93;8.18;;;;;;;8.57;100.00;101060.59;7790939;18;20453;-72
2023/04/29 05:29:43;;;;;;;10.05;8.93;;;;;;;9.01;100.00;101135.69;7789855;18;20002;-72
2023/04/29 05:32:10;;;;;;;15.70;9.57;;;;;;;9.05;100.00;101139.91;7791036;18;20002;-73
2023/04/29 05:34:36;;;;;;;18.67;8.15;;;;;;;9.06;100.00;101134.59;7790913;18;20047;-72
2023/04/29 05:37:03;;;;;;;14.05;9.63;;;;;;;9.10;100.00;101140.56;7788926;18;20005;-71
2023/04/29 05:39:29;;;;;;;12.55;9.45;;;;;;;8.87;100.00;101129.22;7790300;18;20005;-73
2023/04/29 05:41:56;;;;;;;12.25;8.88;;;;;;;9.08;100.00;101148.50;7791612;18;20005;-73
2023/04/29 05:44:22;;;;;;;11.55;8.90;;;;;;;9.04;100.00;101151.25;7790068;18;20081;-72
2023/04/29 05:46:51;;;;;;;8.70;7.72;;;;;;;8.88;100.00;101130.94;7790207;18;20002;-72
2023/04/29 05:49:17;;;;;;;14.77;9.35;;;;;;;9.03;100.00;101160.06;7790152;18;19998;-72
2023/04/29 05:51:44;;;;;;;15.38;8.48;;;;;;;8.89;100.00;101134.41;7791037;18;20018;-73
2023/04/29 05:54:10;;;;;;;13.43;9.32;;;;;;;9.03;100.00;101163.50;7789467;18;20005;-72
2023/04/29 05:56:37;;;;;;;13.55;10.07;;;;;;;8.97;100.00;101172.44;7790452;18;20010;-70
2023/04/29 05:59:03;;;;;;;9.13;8.23;;;;;;;9.06;100.00;101173.00;7789323;18;20002;-72
2023/04/29 06:01:30;;;;;;;10.30;7.93;;;;;;;9.10;100.00;101175.47;7789286;18;20085;-72
2023/04/29 06:03:56;;;;;;;14.63;9.43;;;;;;;8.72;100.00;101103.63;7790081;18;20061;-70
2023/04/29 06:06:23;;;;;;;14.18;9.57;;;;;;;9.17;100.00;101182.16;7790410;18;20020;-70
2023/04/29 06:08:50;;;;;;;18.63;10.02;;;;;;;9.19;100.00;101193.44;7788911;18;20017;-73
2023/04/29 06:11:16;;;;;;;12.07;8.88;;;;;;;9.22;100.00;101188.97;7790232;18;20065;-70
2023/04/29 06:13:43;;;;;;;10.73;8.07;;;;;;;9.14;100.00;101191.88;7790258;18;20105;-69
2023/04/29 06:16:10;;;;;;;10.40;9.20;;;;;;;8.57;100.00;101099.81;7790072;18;20022;-71
2023/04/29 06:18:37;;;;;;;13.27;9.57;;;;;;;8.29;100.00;101058.13;7789953;18;19998;-71
2023/04/29 06:21:04;;;;;;;9.93;8.93;;;;;;;9.26;100.00;101211.53;7788780;18;20073;-71
2023/04/29 06:23:31;;;;;;;17.33;9.65;;;;;;;9.24;100.00;101200.25;7790349;18;19994;-71
2023/04/29 06:25:57;;;;;;;14.57;9.25;;;;;;;9.12;100.00;101188.47;7790879;18;20061;-70
2023/04/29 06:28:24;;;;;;;13.40;10.27;;;;;;;9.31;100.00;101220.91;7789116;18;20004;-71
2023/04/29 06:30:50;;;;;;;14.35;8.80;;;;;;;9.37;100.00;101220.69;7789483;18;19994;-70
2023/04/29 06:33:19;;;;;;;10.95;8.68;;;;;;;9.40;100.00;101217.06;7789651;18;20018;-69
2023/04/29 06:35:45;;;;;;;8.88;8.00;;;;;;;9.05;100.00;101132.03;7749121;18;19994;-70
2023/04/29 06:38:12;;;;;;;14.27;9.65;;;;;;;9.56;100.00;101218.19;7786175;18;20064;-70
2023/04/29 06:40:38;;;;;;;14.93;10.05;;;;;;;9.69;100.00;101217.72;7789931;18;19998;-70
2023/04/29 06:43:05;;;;;;;15.63;9.77;;;;;;;9.79;100.00;101224.28;7789357;18;20002;-70
2023/04/29 06:45:31;;;;;;;15.40;10.77;;;;;;;9.73;100.00;101221.91;7790589;18;20079;-72
2023/04/29 06:47:57;;;;;;;10.70;9.25;;;;;;;9.83;100.00;101225.03;7791130;18;20667;-70
2023/04/29 06:50:24;;;;;;;12.98;9.02;;;;;;;9.88;100.00;101226.53;7790132;18;20069;-71
2023/04/29 06:52:51;;;;;;;21.08;8.88;;;;;;;9.92;100.00;101220.25;7790334;18;20001;-71
2023/04/29 06:55:18;;;;;;;12.27;9.45;;;;;;;9.99;100.00;101236.56;7836865;18;20009;-71
2023/04/29 06:57:44;;;;;;;20.83;11.65;;;;;;;9.91;100.00;101233.41;7829849;18;20002;-70
2023/04/29 07:00:11;;;;;;;12.25;9.98;;;;;;;9.61;100.00;101183.09;7791665;18;20004;-70
2023/04/29 07:02:37;;;;;;;15.07;8.85;;;;;;;10.04;100.00;101234.59;7791266;18;20375;-70
2023/04/29 07:05:05;;;;;;;14.20;9.75;;;;;;;10.16;100.00;101233.25;7790228;18;20024;-71
2023/04/29 07:07:31;;;;;;;12.65;7.85;;;;;;;10.08;100.00;101244.09;7792324;18;19998;-70
2023/04/29 07:09:58;;;;;;;15.02;9.02;;;;;;;9.94;100.00;101241.16;7791431;18;20049;-70
2023/04/29 07:12:25;;;;;;;14.90;8.40;;;;;;;9.48;100.00;101140.81;7792254;18;20009;-71
2023/04/29 07:14:52;;;;;;;16.50;9.77;;;;;;;10.02;100.00;101253.94;7791688;18;20628;-70
2023/04/29 07:17:19;;;;;;;14.35;8.63;;;;;;;10.11;100.00;101266.69;7795261;18;20006;-71
2023/04/29 07:19:46;;;;;;;10.32;8.60;;;;;;;8.83;100.00;101051.72;7750236;18;20045;-70
2023/04/29 07:22:12;;;;;;;10.25;8.27;;;;;;;9.21;100.00;101108.72;7788156;18;20005;-70
2023/04/29 07:24:38;;;;;;;12.73;8.80;;;;;;;10.15;100.00;101281.38;7748155;18;20009;-70
2023/04/29 07:27:05;;;;;;;10.65;9.20;;;;;;;9.45;100.00;101183.69;7788411;18;20095;-71
2023/04/29 07:29:32;;;;;;;13.05;8.02;;;;;;;9.80;100.00;101241.69;7744506;18;20001;-70
2023/04/29 07:31:58;;;;;;;10.88;8.63;;;;;;;9.91;100.00;101291.09;7788582;18;19998;-72
2023/04/29 07:34:25;;;;;;;15.43;8.95;;;;;;;9.97;100.00;101286.44;7787402;18;20013;-72
2023/04/29 07:36:51;;;;;;;15.23;8.38;;;;;;;8.80;100.00;101093.72;7788515;18;20066;-71
2023/04/29 07:39:17;;;;;;;9.30;7.95;;;;;;;9.96;100.00;101295.25;7785096;18;20029;-72
2023/04/29 07:41:44;;;;;;;13.70;8.75;;;;;;;9.94;100.00;101297.09;7788431;18;20122;-71
2023/04/29 07:44:11;;;;;;;15.70;9.48;;;;;;;9.64;100.00;101251.09;7787661;18;19998;-72
2023/04/29 07:46:37;;;;;;;10.88;8.48;;;;;;;9.97;100.00;101302.19;7747275;18;19998;-70
2023/04/29 07:49:05;;;;;;;12.98;9.23;;;;;;;9.54;100.00;101225.28;7789622;18;20017;-68
2023/04/29 07:51:32;;;;;;;15.15;7.88;;;;;;;9.97;100.00;101285.59;7792229;18;20053;-72
2023/04/29 07:53:58;;;;;;;11.55;7.68;;;;;;;9.58;100.00;101211.13;7790100;18;20658;-70
2023/04/29 07:56:25;;;;;;;10.57;7.93;;;;;;;9.59;100.00;101207.59;7786370;18;20660;-71
2023/04/29 07:58:51;;;;;;;9.98;7.10;;;;;;;10.12;100.00;101292.88;7786810;18;20006;-69
2023/04/29 08:01:18;;;;;;;13.73;8.23;;;;;;;9.97;100.00;101296.09;7788667;18;20028;-72
2023/04/29 08:03:44;;;;;;;8.80;8.00;;;;;;;10.10;100.00;101302.56;7788971;18;20002;-71
2023/04/29 08:06:11;;;;;;;9.23;7.03;;;;;;;10.14;100.00;101309.41;7747292;18;20008;-71
2023/04/29 08:08:37;;;;;;;11.45;8.27;;;;;;;10.11;100.00;101313.91;7787168;18;19997;-70
2023/04/29 08:11:05;;;;;;;8.52;7.75;;;;;;;10.16;100.00;101317.19;7784234;18;20002;-71
2023/04/29 08:13:34;;;;;;;8.38;7.57;;;;;;;10.11;100.00;101316.53;7745415;18;20014;-69
2023/04/29 08:16:00;;;;;;;9.15;7.63;;;;;;;10.05;100.00;101311.53;7745742;18;20646;-69
2023/04/29 08:18:27;;;;;;;8.85;7.78;;;;;;;10.09;100.00;101307.88;7791944;18;20010;-71
2023/04/29 08:20:53;;;;;;;12.23;8.18;;;;;;;10.16;100.00;101311.94;7786738;18;20096;-72
2023/04/29 08:23:20;;;;;;;8.82;7.68;;;;;;;10.31;100.00;101318.38;7786075;18;19998;-71
2023/04/29 08:25:46;;;;;;;10.02;8.68;;;;;;;9.64;100.00;101235.38;7785532;18;20006;-71
2023/04/29 08:28:12;;;;;;;8.25;7.32;;;;;;;10.62;100.00;101314.47;7785167;18;20025;-71
2023/04/29 08:30:39;;;;;;;8.23;7.38;;;;;;;10.70;100.00;101312.34;7784780;18;20216;-73
2023/04/29 08:33:07;;;;;;;11.18;8.57;;;;;;;10.53;100.00;101278.97;7785221;18;20440;-71
2023/04/29 08:35:36;;;;;;;10.50;8.48;;;;;;;10.99;100.00;101308.47;7749419;18;20061;-71
2023/04/29 08:38:07;;;;;;;9.52;7.55;;;;;;;11.33;100.00;101314.84;7788417;18;19998;-71
2023/04/29 08:40:35;;;;;;;10.25;8.23;;;;;;;11.44;100.00;101302.06;7787686;18;20017;-72
2023/04/29 08:43:03;;;;;;;13.60;8.60;;;;;;;10.99;99.28;101221.81;7787501;18;20477;-71
2023/04/29 08:45:31;;;;;;;8.27;7.47;;;;;;;10.86;97.14;101192.59;7789485;18;20022;-72
2023/04/29 08:48:01;;;;;;;11.02;8.00;;;;;;;10.82;96.06;101217.28;7746973;18;20008;-71
2023/04/29 08:50:29;;;;;;;9.15;8.30;;;;;;;10.92;97.09;101260.59;7788347;18;20073;-71
2023/04/29 08:52:56;;;;;;;8.68;7.78;;;;;;;11.17;96.71;101283.16;7788609;18;20009;-72
2023/04/29 08:55:23;;;;;;;8.75;7.72;;;;;;;11.04;96.87;101259.19;7788977;18;19998;-70
2023/04/29 08:57:53;;;;;;;8.88;7.15;;;;;;;11.42;97.30;101296.00;7790142;18;20389;-70
2023/04/29 09:00:21;;;;;;;13.43;7.93;;;;;;;11.24;95.78;101283.72;7837840;18;20061;-72
2023/04/29 09:02:53;;;;;;;9.00;7.55;;;;;;;11.10;95.58;101269.44;7839728;18;20531;-70
2023/04/29 09:05:20;;;;;;;9.18;8.25;;;;;;;10.97;96.40;101291.94;7789317;18;20399;-71
2023/04/29 09:07:49;;;;;;;8.82;7.53;;;;;;;10.52;96.54;101227.38;7748982;18;20066;-71
2023/04/29 09:10:16;;;;;;;9.10;7.93;;;;;;;10.05;97.31;101204.00;7787889;18;20009;-71
2023/04/29 09:12:43;;;;;;;16.33;8.50;;;;;;;10.68;98.59;101301.91;7787899;18;20564;-71
2023/04/29 09:15:10;;;;;;;10.43;7.60;;;;;;;10.68;98.92;101301.91;7789197;18;20006;-72
2023/04/29 09:17:44;;;;;;;12.30;8.20;;;;;;;10.71;99.23;101293.06;7789671;18;20009;-72
2023/04/29 09:20:19;;;;;;;11.80;7.85;;;;;;;10.69;100.00;101300.16;7788351;18;20406;-72
2023/04/29 09:23:04;;;;;;;9.82;8.15;;;;;;;10.10;100.00;101212.53;7789135;18;20057;-72
2023/04/29 09:25:30;;;;;;;12.70;8.25;;;;;;;10.34;100.00;101243.03;7837227;18;19994;-72
2023/04/29 09:27:57;;;;;;;9.27;8.20;;;;;;;10.72;100.00;101303.50;7835492;18;20494;-71
2023/04/29 09:30:25;;;;;;;12.82;8.75;;;;;;;10.76;100.00;101309.47;7836364;18;20498;-72
2023/04/29 09:33:06;;;;;;;11.07;7.95;;;;;;;10.73;100.00;101310.47;7837668;18;19997;-71
2023/04/29 09:35:34;;;;;;;14.27;8.45;;;;;;;10.66;100.00;101316.03;7788076;18;20052;-72
2023/04/29 09:38:17;;;;;;;9.30;7.70;;;;;;;10.65;100.00;101317.81;7835993;18;20069;-71
2023/04/29 09:40:43;;;;;;;15.15;9.30;;;;;;;10.14;100.00;101250.81;7786758;18;20009;-73
2023/04/29 09:43:25;;;;;;;8.40;7.50;;;;;;;10.26;100.00;101252.91;7836290;18;20009;-71
2023/04/29 09:45:51;;;;;;;12.93;8.73;;;;;;;10.37;100.00;101295.34;7792139;18;20017;-72
2023/04/29 09:48:18;;;;;;;10.38;9.35;;;;;;;10.54;100.00;101347.16;7838108;18;20058;-72
2023/04/29 09:51:00;;;;;;;15.98;8.65;;;;;;;10.36;100.00;101333.00;7790962;18;20017;-71
2023/04/29 09:53:28;;;;;;;15.68;8.82;;;;;;;10.45;100.00;101352.75;7838758;18;20004;-72
2023/04/29 09:56:00;;;;;;;13.48;7.68;;;;;;;10.54;100.00;101346.25;7792337;18;20046;-71
2023/04/29 09:58:38;;;;;;;18.00;9.38;;;;;;;10.56;100.00;101363.69;7838501;18;20002;-71
2023/04/29 10:01:05;;;;;;;9.98;8.73;;;;;;;10.62;100.00;101361.69;7790530;18;20000;-71
2023/04/29 10:03:37;;;;;;;20.38;10.23;;;;;;;9.49;100.00;101180.03;7796547;18;20020;-71
2023/04/29 10:06:06;;;;;;;11.20;8.32;;;;;;;10.73;100.00;101377.88;7791499;18;20053;-72
2023/04/29 10:08:33;;;;;;;14.73;9.48;;;;;;;10.66;100.00;101372.00;7838122;18;20052;-71
2023/04/29 10:11:02;;;;;;;19.60;9.20;;;;;;;10.09;100.00;101274.63;7791830;18;20006;-71
2023/04/29 10:13:29;;;;;;;12.88;9.48;;;;;;;10.70;100.00;101378.81;7838039;18;20004;-72
2023/04/29 10:16:28;;;;;;;18.85;9.00;;;;;;;10.67;100.00;101381.59;7750739;18;20006;-72
2023/04/29 10:18:59;;;;;;;11.63;9.73;;;;;;;10.69;100.00;101395.50;7838384;18;20025;-71
2023/04/29 10:21:30;;;;;;;19.08;9.48;;;;;;;10.66;100.00;101385.13;7790974;18;20557;-72
2023/04/29 10:23:58;;;;;;;12.10;8.50;;;;;;;10.71;100.00;101390.19;7837837;18;20008;-71
2023/04/29 10:26:28;;;;;;;14.30;10.25;;;;;;;10.70;100.00;101386.69;7791982;18;19998;-71
2023/04/29 10:28:59;;;;;;;12.63;10.38;;;;;;;10.69;100.00;101385.00;7835956;18;19994;-71
2023/04/29 10:31:26;;;;;;;13.85;9.40;;;;;;;10.75;100.00;101387.38;7791267;18;20005;-71
2023/04/29 10:33:56;;;;;;;13.52;9.20;;;;;;;10.72;100.00;101392.78;7837137;18;20001;-72
2023/04/29 10:36:29;;;;;;;15.18;10.13;;;;;;;10.62;100.00;101380.06;7750123;18;20539;-71
2023/04/29 10:38:58;;;;;;;12.13;9.30;;;;;;;10.81;100.00;101398.56;7838936;18;20071;-71
2023/04/29 10:41:28;;;;;;;15.65;12.05;;;;;;;10.24;100.00;101314.25;7789518;18;20164;-72
2023/04/29 10:43:58;;;;;;;30.05;14.50;;;;;;;10.99;100.00;101405.66;7837491;18;19998;-72
2023/04/29 10:46:25;;;;;;;27.63;14.10;;;;;;;11.10;100.00;101405.19;7791817;18;20056;-72
2023/04/29 10:48:59;;;;;;;20.42;12.00;;;;;;;11.21;100.00;101399.47;7839517;18;20002;-72
2023/04/29 10:51:33;;;;;;;21.75;12.52;;;;;;;11.09;100.00;101388.56;7792215;18;20010;-70
2023/04/29 10:54:09;;;;;;;18.73;11.20;;;;;;;11.03;100.00;101354.69;7839049;18;19993;-72
2023/04/29 10:56:55;;;;;;;23.90;12.05;;;;;;;11.34;100.00;101392.75;7791080;18;20061;-70
2023/04/29 10:59:41;;;;;;;22.10;11.45;;;;;;;11.17;100.00;101393.50;7838978;18;20006;-71
2023/04/29 11:02:09;;;;;;;19.33;13.48;;;;;;;10.72;100.00;101328.88;7791743;18;20005;-72
2023/04/29 11:05:08;;;;;;;26.65;13.65;;;;;;;11.06;100.00;101393.94;7795895;18;20012;-72
2023/04/29 11:07:35;;;;;;;24.88;15.63;;;;;;;10.69;100.00;101340.38;7790760;18;20066;-70
2023/04/29 11:10:02;;;;;;;35.78;18.80;;;;;;;11.12;100.00;101398.94;7837699;18;20084;-72
2023/04/29 11:12:29;;;;;;;34.20;17.30;;;;;;;11.07;100.00;101406.16;7791147;18;20061;-71
2023/04/29 11:15:03;;;;;;;47.85;18.67;;;;;;;11.08;100.00;101407.88;7794374;18;19989;-73
2023/04/29 11:17:37;;;;;;;41.83;19.27;;;;;;;10.96;100.00;101411.03;7791125;18;20171;-71